createdAt,value
2023-11-12T00:00:50.042Z,99739.25
2023-11-12T00:03:18.047Z,99735.41
2023-11-12T00:05:45.727Z,99719.84
2023-11-12T00:08:13.425Z,99727.41
2023-11-12T00:10:41.462Z,99737.62
2023-11-12T00:13:09.848Z,99729.78
2023-11-12T00:15:37.485Z,99731.25
2023-11-12T00:18:05.422Z,99691.97
2023-11-12T00:20:33.090Z,99729.06
2023-11-12T04:10:39.322Z,99866.88
2023-11-12T04:13:07.750Z,99867.59
2023-11-12T04:15:36.196Z,99866.97
2023-11-12T04:18:04.000Z,99864.28
2023-11-12T04:20:33.526Z,99862.97
2023-11-12T04:23:01.104Z,99820.44
2023-11-12T04:25:28.639Z,99873.97
2023-11-12T04:27:56.526Z,99877.66
2023-11-12T04:30:24.082Z,99874.81
2023-11-12T04:32:51.755Z,99881.09
2023-11-12T04:35:20.580Z,99886.06
2023-11-12T04:37:48.163Z,99879.63
2023-11-12T04:40:17.936Z,99875.50
2023-11-12T04:42:45.943Z,99885.06
2023-11-12T04:45:13.530Z,99896.47
2023-11-12T04:47:41.470Z,99898.47
2023-11-12T04:50:10.001Z,99901.66
2023-11-12T04:52:37.536Z,99896.19
2023-11-12T04:55:05.538Z,99861.94
2023-11-12T04:57:33.409Z,99916.31
2023-11-12T05:00:01.332Z,99914.16
2023-11-12T05:02:28.906Z,99928.84
2023-11-12T05:04:56.760Z,99918.91
2023-11-12T05:07:24.832Z,99924.56
2023-11-12T05:09:52.410Z,99923.00
2023-11-12T05:12:22.259Z,99922.28
2023-11-12T05:14:49.929Z,99925.00
2023-11-12T05:17:17.422Z,99931.25
2023-11-12T05:19:45.248Z,99944.06
2023-11-12T05:22:12.774Z,99944.06
2023-11-12T05:24:40.508Z,99951.88
2023-11-12T05:27:08.354Z,99964.41
2023-11-12T05:29:35.929Z,99955.87
2023-11-12T05:32:05.037Z,99954.66
2023-11-12T05:34:32.854Z,99955.91
2023-11-12T05:37:00.402Z,99965.94
2023-11-12T05:39:27.968Z,99962.13
2023-11-12T05:41:55.842Z,99875.22
2023-11-12T05:44:23.343Z,99966.94
2023-11-12T05:46:50.860Z,99968.81
2023-11-12T05:49:18.707Z,99923.22
2023-11-12T05:51:46.324Z,99977.75
2023-11-12T05:54:16.607Z,99984.84
2023-11-12T05:56:45.900Z,99985.56
2023-11-12T05:59:13.486Z,99996.59
2023-11-12T06:01:41.120Z,100012.94
2023-11-12T06:04:09.311Z,99999.91
2023-11-12T06:06:36.985Z,100013.47
2023-11-12T06:09:04.522Z,100013.56
2023-11-12T06:11:32.531Z,100023.75
2023-11-12T06:14:00.061Z,99975.22
2023-11-12T06:16:27.577Z,100014.84
2023-11-12T06:18:55.494Z,100018.88
2023-11-12T06:21:23.151Z,100020.44
2023-11-12T06:23:50.740Z,100021.69
2023-11-12T06:26:22.135Z,100019.13
2023-11-12T06:28:50.468Z,100020.16
2023-11-12T06:31:18.373Z,100031.53
2023-11-12T06:33:45.996Z,100035.12
2023-11-12T06:36:15.313Z,100028.62
2023-11-12T06:38:43.876Z,100037.31
2023-11-12T06:41:11.567Z,100033.94
2023-11-12T06:43:39.464Z,100031.59
2023-11-12T06:46:08.778Z,100039.31
2023-11-12T06:48:36.500Z,100036.84
2023-11-12T06:51:04.471Z,100051.56
2023-11-12T06:53:32.355Z,100056.09
2023-11-12T06:55:59.957Z,100053.50
2023-11-12T06:58:27.467Z,100058.00
2023-11-12T07:00:55.825Z,100051.97
2023-11-12T07:03:23.622Z,100004.72
2023-11-12T07:05:51.709Z,100054.94
2023-11-12T07:08:20.535Z,100062.50
2023-11-12T07:10:48.099Z,100048.97
2023-11-12T07:13:17.120Z,100057.75
2023-11-12T07:15:45.246Z,100052.84
2023-11-12T07:18:13.025Z,100044.28
2023-11-12T07:20:40.616Z,100054.72
2023-11-12T07:23:08.484Z,100053.38
2023-11-12T07:25:36.121Z,100064.31
2023-11-12T07:28:03.779Z,100056.53
2023-11-12T07:30:32.594Z,100052.94
2023-11-12T07:33:00.253Z,100058.25
2023-11-12T07:35:27.945Z,100057.63
2023-11-12T07:37:55.687Z,100061.00
2023-11-12T07:40:24.361Z,100058.00
2023-11-12T07:42:51.913Z,100058.84
2023-11-12T07:45:25.389Z,100058.41
2023-11-12T07:47:55.620Z,100064.25
2023-11-12T07:50:23.454Z,100076.94
2023-11-12T07:52:50.986Z,100060.09
2023-11-12T07:55:19.004Z,100072.88
2023-11-12T07:57:47.068Z,100039.09
2023-11-12T08:00:14.992Z,100084.00
2023-11-12T08:02:43.035Z,100079.06
2023-11-12T08:05:11.416Z,100080.06
2023-11-12T08:07:38.987Z,100087.25
2023-11-12T08:10:09.601Z,100084.53
2023-11-12T08:12:39.262Z,100090.78
2023-11-12T08:15:14.009Z,100008.75
2023-11-12T08:17:42.380Z,100095.22
2023-11-12T08:20:11.946Z,100092.38
2023-11-12T08:22:39.578Z,100108.56
2023-11-12T08:25:07.930Z,100101.66
2023-11-12T08:27:36.506Z,100105.13
2023-11-12T08:30:05.269Z,100111.19
2023-11-12T08:32:33.064Z,100107.34
2023-11-12T08:35:01.063Z,100111.50
2023-11-12T08:37:28.766Z,100114.13
2023-11-12T08:39:56.453Z,100119.38
2023-11-12T08:42:25.344Z,100077.22
2023-11-12T08:44:55.748Z,100120.88
2023-11-12T08:47:24.253Z,100118.53
2023-11-12T08:49:52.359Z,100122.41
2023-11-12T08:52:19.919Z,100115.78
2023-11-12T08:54:47.436Z,100077.28
2023-11-12T08:57:15.407Z,100125.03
2023-11-12T08:59:42.873Z,100135.13
2023-11-12T09:02:10.584Z,100133.19
2023-11-12T09:04:39.324Z,100126.28
2023-11-12T09:07:08.408Z,100083.06
2023-11-12T09:09:35.973Z,100080.00
2023-11-12T09:12:05.300Z,100092.97
2023-11-12T09:14:33.054Z,100136.63
2023-11-12T09:17:00.602Z,100104.56
2023-11-12T09:19:28.481Z,100129.81
2023-11-12T09:21:56.074Z,100139.66
2023-11-12T09:24:23.709Z,100141.72
2023-11-12T09:26:51.943Z,100143.25
2023-11-12T09:29:19.975Z,100140.84
2023-11-12T09:31:47.509Z,100135.87
2023-11-12T09:34:15.346Z,100140.81
2023-11-12T09:36:42.998Z,100146.09
2023-11-12T09:39:14.232Z,100103.56
2023-11-12T09:41:47.947Z,100144.41
2023-11-12T09:44:19.016Z,100146.09
2023-11-12T09:47:04.150Z,100147.16
2023-11-12T09:49:33.477Z,100151.72
2023-11-12T09:52:01.827Z,100153.09
2023-11-12T09:54:29.502Z,100142.72
2023-11-12T09:57:08.308Z,100150.81
2023-11-12T09:59:37.869Z,100155.97
2023-11-12T10:02:09.273Z,100155.25
2023-11-12T10:04:37.539Z,100154.03
2023-11-12T10:07:05.437Z,100147.28
2023-11-12T10:09:33.426Z,100151.84
2023-11-12T10:12:05.367Z,100159.00
2023-11-12T10:14:33.610Z,100154.69
2023-11-12T10:17:06.716Z,100148.31
2023-11-12T10:19:38.796Z,100153.72
2023-11-12T10:22:10.656Z,100118.06
2023-11-12T10:24:45.898Z,100142.22
2023-11-12T10:27:15.591Z,100145.22
2023-11-12T10:29:44.556Z,100135.34
2023-11-12T10:32:28.513Z,100139.81
2023-11-12T10:34:56.674Z,100145.81
2023-11-12T10:37:24.456Z,100129.59
2023-11-12T10:39:52.258Z,100140.38
2023-11-12T10:42:27.847Z,100141.28
2023-11-12T10:44:58.474Z,100148.41
2023-11-12T10:47:28.329Z,100141.56
2023-11-12T10:49:56.758Z,100144.34
2023-11-12T10:52:24.658Z,100142.34
2023-11-12T10:54:55.193Z,100131.81
2023-11-12T10:57:24.921Z,100139.50
2023-11-12T10:59:54.778Z,100101.94
2023-11-12T11:02:31.037Z,100118.19
2023-11-12T11:05:00.039Z,100135.34
2023-11-12T11:07:27.572Z,100133.34
2023-11-12T11:09:55.209Z,100127.44
2023-11-12T11:12:23.830Z,100123.78
2023-11-12T11:14:51.386Z,100127.50
2023-11-12T11:17:48.809Z,100128.72
2023-11-12T11:20:17.852Z,100126.22
2023-11-12T11:22:45.785Z,100129.75
2023-11-12T11:25:26.182Z,100127.19
2023-11-12T11:28:35.689Z,100119.81
2023-11-12T11:31:11.125Z,100127.16
2023-11-12T11:33:49.452Z,100116.94
2023-11-12T11:36:24.049Z,100125.19
2023-11-12T11:39:14.286Z,100125.84
2023-11-12T11:41:53.544Z,100131.63
2023-11-12T11:44:40.159Z,100135.03
2023-11-12T11:47:15.371Z,100136.47
2023-11-12T11:49:47.276Z,100135.87
2023-11-12T11:52:23.458Z,100132.25
2023-11-12T11:54:58.446Z,100135.09
2023-11-12T11:57:28.359Z,100127.97
2023-11-12T11:59:58.289Z,100141.72
2023-11-12T12:02:26.533Z,100140.97
2023-11-12T12:04:59.252Z,100133.59
2023-11-12T12:07:31.162Z,100131.25
2023-11-12T12:10:01.698Z,100113.72
2023-11-12T12:12:30.509Z,100119.16
2023-11-12T12:14:58.128Z,100119.53
2023-11-12T12:17:25.918Z,100109.59
2023-11-12T12:19:57.123Z,100116.53
2023-11-12T12:22:28.961Z,100108.69
2023-11-12T12:24:59.476Z,100073.75
2023-11-12T12:27:27.422Z,100076.19
2023-11-12T12:29:56.271Z,100110.78
2023-11-12T12:32:24.450Z,100121.25
2023-11-12T12:34:58.792Z,100097.38
2023-11-12T12:37:29.520Z,100112.81
2023-11-12T12:40:05.542Z,100109.62
2023-11-12T12:42:35.492Z,100117.53
2023-11-12T12:45:11.841Z,100122.69
2023-11-12T12:47:45.401Z,100119.66
2023-11-12T12:50:14.570Z,100125.84
2023-11-12T12:52:46.686Z,100119.50
2023-11-12T12:55:19.844Z,100085.06
2023-11-12T12:57:52.192Z,100119.59
2023-11-12T13:00:24.197Z,100118.63
2023-11-12T13:02:53.224Z,100121.41
2023-11-12T13:05:23.026Z,100128.63
2023-11-12T13:07:52.622Z,100124.50
2023-11-12T13:10:23.820Z,100128.72
2023-11-12T13:12:55.936Z,100130.38
2023-11-12T13:15:26.464Z,100086.97
2023-11-12T13:17:54.478Z,100121.56
2023-11-12T13:20:25.833Z,100124.66
2023-11-12T13:22:53.836Z,100125.94
2023-11-12T13:25:21.307Z,100128.28
2023-11-12T13:27:50.599Z,100124.31
2023-11-12T13:30:18.616Z,100089.47
2023-11-12T13:32:47.932Z,100120.47
2023-11-12T13:35:16.878Z,100126.03
2023-11-12T13:37:46.536Z,100088.19
2023-11-12T13:40:16.677Z,100126.00
2023-11-12T13:42:45.720Z,100131.56
2023-11-12T13:45:15.205Z,100131.03
2023-11-12T13:47:43.728Z,100134.66
2023-11-12T13:50:12.787Z,100132.84
2023-11-12T13:52:41.877Z,100140.22
2023-11-12T13:55:19.057Z,100148.09
2023-11-12T13:57:48.745Z,100148.91
2023-11-12T14:00:18.718Z,100146.44
2023-11-12T14:02:46.818Z,100149.37
2023-11-12T14:05:14.912Z,100147.03
2023-11-12T14:07:42.884Z,100138.50
2023-11-12T14:10:12.094Z,100152.87
2023-11-12T14:12:40.186Z,100154.97
2023-11-12T14:15:11.314Z,100150.31
2023-11-12T14:17:39.271Z,100159.28
2023-11-12T14:20:08.091Z,100158.63
2023-11-12T14:22:36.127Z,100164.03
2023-11-12T14:25:09.299Z,100164.34
2023-11-12T14:27:39.227Z,100168.22
2023-11-12T14:30:09.243Z,100159.66
2023-11-12T14:32:36.828Z,100171.12
2023-11-12T14:35:04.673Z,100159.56
2023-11-12T14:37:32.530Z,100164.25
2023-11-12T14:40:01.027Z,100171.03
2023-11-12T14:42:31.277Z,100116.41
2023-11-12T14:44:59.690Z,100141.28
2023-11-12T14:47:27.243Z,100174.56
2023-11-12T14:49:54.805Z,100174.44
2023-11-12T14:52:24.576Z,100177.78
2023-11-12T14:54:52.100Z,100178.91
2023-11-12T14:57:19.887Z,100141.19
2023-11-12T14:59:48.127Z,100182.63
2023-11-12T15:02:15.830Z,100188.31
2023-11-12T15:04:43.553Z,100183.34
2023-11-12T15:07:11.565Z,100178.06
2023-11-12T15:09:41.739Z,100180.56
2023-11-12T15:12:10.145Z,100184.00
2023-11-12T15:14:37.966Z,100180.53
2023-11-12T15:17:05.865Z,100184.09
2023-11-12T15:19:33.468Z,100182.28
2023-11-12T15:22:01.306Z,100178.66
2023-11-12T15:24:29.646Z,100175.63
2023-11-12T15:26:58.443Z,100178.63
2023-11-12T15:29:26.283Z,100181.78
2023-11-12T15:31:53.930Z,100178.88
2023-11-12T15:34:21.708Z,100184.16
2023-11-12T15:36:51.096Z,100180.66
2023-11-12T15:39:21.146Z,100144.75
2023-11-12T15:41:49.120Z,100189.13
2023-11-12T15:44:17.147Z,100192.00
2023-11-12T15:46:44.910Z,100190.28
2023-11-12T15:49:12.895Z,100197.44
2023-11-12T15:51:40.446Z,100186.44
2023-11-12T15:54:07.963Z,100199.97
2023-11-12T15:56:37.042Z,100204.34
2023-11-12T15:59:04.614Z,100198.50
2023-11-12T16:01:34.296Z,100199.50
2023-11-12T16:04:06.310Z,100199.31
2023-11-12T16:06:34.207Z,100203.00
2023-11-12T16:09:02.687Z,100198.97
2023-11-12T16:11:34.173Z,100195.22
2023-11-12T16:14:02.224Z,100194.88
2023-11-12T16:16:30.818Z,100195.94
2023-11-12T16:18:58.453Z,100203.09
2023-11-12T16:21:26.309Z,100174.25
2023-11-12T16:23:53.905Z,100207.75
2023-11-12T16:26:21.440Z,100210.16
2023-11-12T16:28:49.566Z,100203.13
2023-11-12T16:31:17.356Z,100217.03
2023-11-12T16:33:45.046Z,100214.53
2023-11-12T16:36:13.494Z,100204.66
2023-11-12T16:38:42.223Z,100207.63
2023-11-12T16:41:09.837Z,100207.88
2023-11-12T16:43:37.681Z,100208.97
2023-11-12T16:46:05.274Z,100201.72
2023-11-12T16:48:32.947Z,100214.22
2023-11-12T16:51:00.823Z,100213.37
2023-11-12T16:53:28.464Z,100207.69
2023-11-12T16:55:56.336Z,100216.59
2023-11-12T16:58:24.532Z,100215.06
2023-11-12T17:00:52.789Z,100214.38
2023-11-12T17:03:21.292Z,100215.41
2023-11-12T17:05:49.774Z,100224.31
2023-11-12T17:08:17.293Z,100231.34
2023-11-12T17:10:46.858Z,100241.56
2023-11-12T17:13:14.731Z,100234.69
2023-11-12T17:15:42.643Z,100237.63
2023-11-12T17:18:10.608Z,100243.22
2023-11-12T17:20:39.851Z,100237.16
2023-11-12T17:23:08.788Z,100238.69
2023-11-12T17:25:36.544Z,100248.31
2023-11-12T17:28:05.306Z,100246.31
2023-11-12T17:30:35.661Z,100202.97
2023-11-12T17:33:04.045Z,100248.69
2023-11-12T17:35:34.144Z,100246.06
2023-11-12T17:38:01.936Z,100260.53
2023-11-12T17:40:29.615Z,100249.16
2023-11-12T17:42:57.589Z,100252.59
2023-11-12T17:45:25.213Z,100251.75
2023-11-12T17:47:52.999Z,100264.19
2023-11-12T17:50:21.223Z,100256.34
2023-11-12T17:52:48.772Z,100263.72
2023-11-12T17:55:16.768Z,100262.88
2023-11-12T17:57:44.996Z,100259.66
2023-11-12T18:00:14.122Z,100268.16
2023-11-12T18:02:42.748Z,100226.75
2023-11-12T18:05:11.141Z,100278.53
2023-11-12T18:07:40.490Z,100229.66
2023-11-12T18:10:13.224Z,100281.47
2023-11-12T18:12:42.662Z,100279.72
2023-11-12T18:15:14.388Z,100281.09
2023-11-12T18:17:42.701Z,100239.47
2023-11-12T18:20:11.378Z,100288.91
2023-11-12T18:22:39.980Z,100281.44
2023-11-12T18:25:07.966Z,100290.19
2023-11-12T18:27:36.539Z,100240.97
2023-11-12T18:30:07.507Z,100288.66
2023-11-12T18:32:37.299Z,100292.22
2023-11-12T18:35:07.228Z,100287.00
2023-11-12T18:37:35.424Z,100291.47
2023-11-12T18:40:04.509Z,100293.25
2023-11-12T18:42:32.545Z,100294.94
2023-11-12T18:45:00.284Z,100300.28
2023-11-12T18:47:29.076Z,100295.75
2023-11-12T18:49:57.023Z,100293.94
2023-11-12T18:52:24.742Z,100259.06
2023-11-12T18:54:52.670Z,100297.75
2023-11-12T18:57:20.831Z,100300.50
2023-11-12T18:59:48.380Z,100252.91
2023-11-12T19:02:16.109Z,100296.91
2023-11-12T19:04:45.187Z,100295.50
2023-11-12T19:07:16.066Z,100298.19
2023-11-12T19:09:45.613Z,100303.34
2023-11-12T19:12:14.297Z,100310.56
2023-11-12T19:14:41.820Z,100301.53
2023-11-12T19:17:09.976Z,100306.38
2023-11-12T19:19:39.363Z,100304.03
2023-11-12T19:22:07.264Z,100303.34
2023-11-12T19:24:38.781Z,100301.81
2023-11-12T19:27:07.873Z,100299.75
2023-11-12T19:29:35.826Z,100303.94
2023-11-12T19:32:05.241Z,100247.16
2023-11-12T19:34:35.594Z,100299.66
2023-11-12T19:37:04.150Z,100309.13
2023-11-12T19:39:34.141Z,100305.37
2023-11-12T19:42:02.006Z,100311.50
2023-11-12T19:44:30.064Z,100302.00
2023-11-12T19:46:59.308Z,100310.16
2023-11-12T19:49:27.306Z,100319.03
2023-11-12T19:51:55.197Z,100321.22
2023-11-12T19:54:23.341Z,100274.87
2023-11-12T19:56:52.055Z,100322.47
2023-11-12T19:59:20.345Z,100317.56
2023-11-12T20:01:48.285Z,100318.19
2023-11-12T20:04:16.462Z,100321.63
2023-11-12T20:06:44.423Z,100268.91
2023-11-12T20:09:12.147Z,100322.69
2023-11-12T20:11:40.790Z,100321.31
2023-11-12T20:14:08.539Z,100319.13
2023-11-12T20:16:36.970Z,100280.25
2023-11-12T20:19:07.147Z,100319.13
2023-11-12T20:21:41.285Z,100313.91
2023-11-12T20:24:12.994Z,100311.50
2023-11-12T20:26:48.129Z,100321.31
2023-11-12T20:29:17.675Z,100313.56
2023-11-12T20:31:45.516Z,100315.13
2023-11-12T20:34:13.196Z,100319.31
2023-11-12T20:36:42.860Z,100272.53
2023-11-12T20:39:16.744Z,100316.38
2023-11-12T20:41:46.368Z,100322.03
2023-11-12T20:44:15.433Z,100320.12
2023-11-12T20:46:47.621Z,100325.34
2023-11-12T20:49:18.000Z,100321.94
2023-11-12T20:51:50.132Z,100321.19
2023-11-12T20:54:18.333Z,100323.56
2023-11-12T20:56:46.037Z,100324.41
2023-11-12T20:59:14.359Z,100328.78
2023-11-12T21:01:44.024Z,100327.84
2023-11-12T21:04:13.480Z,100334.97
2023-11-12T21:06:44.245Z,100331.72
2023-11-12T21:09:13.373Z,100340.38
2023-11-12T21:11:46.938Z,100338.81
2023-11-12T21:14:16.764Z,100290.06
2023-11-12T21:16:44.655Z,100335.78
2023-11-12T21:19:12.429Z,100338.00
2023-11-12T21:21:40.492Z,100337.06
2023-11-12T21:24:09.879Z,100279.56
2023-11-12T21:26:39.004Z,100333.72
2023-11-12T21:29:10.261Z,100329.22
2023-11-12T21:31:39.085Z,100334.66
2023-11-12T21:34:07.371Z,100339.97
2023-11-12T21:36:34.890Z,100298.28
2023-11-12T21:39:02.593Z,100341.63
2023-11-12T21:41:31.059Z,100348.63
2023-11-12T21:43:58.579Z,100349.34
2023-11-12T21:46:28.072Z,100353.50
2023-11-12T21:48:56.221Z,100356.19
2023-11-12T21:51:24.328Z,100356.00
2023-11-12T21:53:51.884Z,100357.22
2023-11-12T21:56:19.773Z,100355.16
2023-11-12T21:58:47.309Z,100347.53
2023-11-12T22:01:15.022Z,100303.97
2023-11-12T22:03:43.042Z,100344.22
2023-11-12T22:06:11.805Z,100349.22
2023-11-12T22:08:39.673Z,100343.16
2023-11-12T22:11:07.456Z,100349.63
2023-11-12T22:13:35.330Z,100337.44
2023-11-12T22:16:02.982Z,100339.09
2023-11-12T22:18:30.892Z,100341.63
2023-11-12T22:20:58.995Z,100341.63
2023-11-12T22:23:26.520Z,100331.84
2023-11-12T22:25:54.539Z,100341.81
2023-11-12T22:28:22.031Z,100342.69
2023-11-12T22:30:50.286Z,100338.31
2023-11-12T22:33:18.351Z,100335.84
2023-11-12T22:35:45.879Z,100344.94
2023-11-12T22:38:13.387Z,100338.28
2023-11-12T22:40:41.278Z,100328.28
2023-11-12T22:43:08.835Z,100324.22
2023-11-12T22:45:37.312Z,100330.88
2023-11-12T22:48:06.060Z,100330.47
2023-11-12T22:50:33.648Z,100322.91
2023-11-12T22:53:01.156Z,100276.56
2023-11-12T22:55:28.986Z,100320.06
2023-11-12T22:57:59.310Z,100316.34
2023-11-12T23:00:46.348Z,100319.84
2023-11-12T23:03:16.196Z,100312.94
2023-11-12T23:05:44.894Z,100313.91
2023-11-12T23:08:12.978Z,100319.50
2023-11-12T23:10:46.183Z,100324.09
2023-11-12T23:13:16.103Z,100318.50
2023-11-12T23:15:45.683Z,100267.66
2023-11-12T23:18:14.098Z,100319.03
2023-11-12T23:20:44.352Z,100327.47
2023-11-12T23:23:15.701Z,100323.50
2023-11-12T23:25:43.271Z,100318.28
2023-11-12T23:28:11.730Z,100272.66
2023-11-12T23:30:40.501Z,100319.53
2023-11-12T23:33:09.295Z,100330.91
2023-11-12T23:35:37.075Z,100332.47
2023-11-12T23:38:05.709Z,100319.34
2023-11-12T23:40:33.246Z,100318.59
2023-11-12T23:43:01.716Z,100328.09
2023-11-12T23:45:29.742Z,100320.16
2023-11-12T23:47:57.403Z,100315.78
2023-11-12T23:50:26.960Z,100324.13
2023-11-12T23:52:54.883Z,100316.00
2023-11-12T23:55:23.432Z,100313.78
2023-11-12T23:57:51.306Z,100310.97
